createdAt,value
2019-05-22T00:01:20.339Z,98647.81
2019-05-22T00:03:54.022Z,98647.69
2019-05-22T00:06:25.732Z,98647.34
2019-05-22T00:08:56.854Z,98649.47
2019-05-22T00:11:28.084Z,98651.27
2019-05-22T00:13:59.641Z,98650.86
2019-05-22T00:16:30.671Z,98655.68
2019-05-22T00:19:00.081Z,98655.21
2019-05-22T00:21:30.127Z,98659.53
2019-05-22T00:24:00.193Z,98660.85
2019-05-22T00:26:30.191Z,98663.11
2019-05-22T00:28:59.605Z,98661.39
2019-05-22T00:31:29.939Z,98666.22
2019-05-22T00:34:00.131Z,98669.29
2019-05-22T00:36:29.871Z,98668.97
2019-05-22T00:39:00.538Z,98671.62
2019-05-22T00:41:32.655Z,98667.27
2019-05-22T00:44:04.084Z,98672.97
2019-05-22T00:46:33.952Z,98669.45
2019-05-22T00:49:03.951Z,98670.39
2019-05-22T00:51:36.407Z,98665.17
2019-05-22T00:54:24.049Z,98664.34
2019-05-22T00:56:56.439Z,98666.49
2019-05-22T00:59:31.583Z,98670.52
2019-05-22T01:02:05.065Z,98664.86
2019-05-22T01:04:36.802Z,98664.85
2019-05-22T01:07:18.168Z,98668.34
2019-05-22T01:09:52.928Z,98667.51
2019-05-22T01:12:34.032Z,98664.02
2019-05-22T01:15:07.235Z,98665.35
2019-05-22T01:17:38.124Z,98672.43
2019-05-22T01:20:10.420Z,98666.32
2019-05-22T01:22:41.621Z,98670.78
2019-05-22T01:25:14.301Z,98677.82
2019-05-22T01:27:45.864Z,98673.47
2019-05-22T01:30:19.253Z,98664.77
2019-05-22T01:32:51.881Z,98670.91
2019-05-22T01:35:22.944Z,98673.98
2019-05-22T01:37:53.119Z,98675.33
2019-05-22T01:40:45.115Z,98672.28
2019-05-22T01:43:20.977Z,98668.33
2019-05-22T01:45:52.568Z,98676.64
2019-05-22T01:48:25.870Z,98674.02
2019-05-22T01:51:00.297Z,98675.34
2019-05-22T01:53:34.394Z,98674.46
2019-05-22T01:56:08.649Z,98681.91
2019-05-22T01:58:39.156Z,98677.95
2019-05-22T02:01:13.278Z,98686.70
2019-05-22T02:03:44.761Z,98682.34
2019-05-22T02:06:14.945Z,98677.55
2019-05-22T02:08:51.532Z,98677.57
2019-05-22T02:11:23.355Z,98682.38
2019-05-22T02:14:12.412Z,98678.89
2019-05-22T02:16:56.344Z,98678.91
2019-05-22T02:19:16.513Z,98681.95
2019-05-22T02:21:46.126Z,98679.75
2019-05-22T02:24:15.961Z,98676.26
2019-05-22T02:26:45.919Z,98676.70
2019-05-22T02:29:17.329Z,98680.19
2019-05-22T02:31:48.003Z,98681.50
2019-05-22T02:34:17.952Z,98676.69
2019-05-22T02:36:48.385Z,98684.58
2019-05-22T02:39:26.180Z,98684.56
2019-05-22T02:41:59.666Z,98688.49
2019-05-22T02:44:29.710Z,98688.03
2019-05-22T02:47:18.352Z,98686.73
2019-05-22T02:49:35.956Z,98685.85
2019-05-22T02:52:09.910Z,98686.72
2019-05-22T02:54:39.860Z,98682.80
2019-05-22T02:57:10.973Z,98681.05
2019-05-22T02:59:42.317Z,98684.56
2019-05-22T03:02:14.059Z,98685.88
2019-05-22T03:05:03.683Z,98691.13
2019-05-22T03:07:33.701Z,98688.50
2019-05-22T03:10:05.748Z,98688.91
2019-05-22T03:12:36.375Z,98697.21
2019-05-22T03:15:08.775Z,98697.61
2019-05-22T03:17:40.850Z,98701.52
2019-05-22T03:20:13.710Z,98704.11
2019-05-22T03:22:46.150Z,98702.37
2019-05-22T03:25:18.202Z,98708.02
2019-05-22T03:27:50.604Z,98703.66
2019-05-22T03:30:33.892Z,98699.73
2019-05-22T03:33:06.238Z,98706.30
2019-05-22T03:35:47.941Z,98717.22
2019-05-22T03:38:18.866Z,98711.09
2019-05-22T03:40:51.498Z,98715.89
2019-05-22T03:43:28.259Z,98715.45
2019-05-22T03:46:00.574Z,98721.55
2019-05-22T03:48:36.254Z,98716.33
2019-05-22T03:51:14.301Z,98719.84
2019-05-22T03:53:46.271Z,98721.13
2019-05-22T03:56:17.375Z,98724.62
2019-05-22T03:58:47.023Z,98724.22
2019-05-22T04:01:17.686Z,98731.66
2019-05-22T04:03:48.332Z,98731.67
2019-05-22T04:06:19.398Z,98736.03
2019-05-22T04:08:50.502Z,98734.30
2019-05-22T04:11:21.452Z,98737.81
2019-05-22T04:13:50.856Z,98741.33
2019-05-22T04:16:22.191Z,98736.14
2019-05-22T04:18:52.175Z,98734.84
2019-05-22T04:21:21.588Z,98737.06
2019-05-22T04:23:51.355Z,98740.14
2019-05-22T04:26:20.855Z,98741.88
2019-05-22T04:28:52.961Z,98738.83
2019-05-22T04:31:35.348Z,98744.09
2019-05-22T04:34:05.153Z,98746.27
2019-05-22T04:36:35.609Z,98744.52
2019-05-22T04:39:09.267Z,98744.48
2019-05-22T04:41:39.007Z,98749.30
2019-05-22T04:44:08.457Z,98754.12
2019-05-22T04:46:38.220Z,98758.49
2019-05-22T04:49:07.688Z,98762.41
2019-05-22T04:51:37.099Z,98756.70
2019-05-22T04:54:06.657Z,98759.31
2019-05-22T04:56:36.743Z,98753.58
2019-05-22T04:59:06.616Z,98763.19
2019-05-22T05:01:37.292Z,98758.32
2019-05-22T05:04:06.938Z,98765.76
2019-05-22T05:06:37.726Z,98765.32
2019-05-22T05:09:09.857Z,98778.44
2019-05-22T05:11:39.908Z,98769.21
2019-05-22T05:14:09.420Z,98773.19
2019-05-22T05:16:39.103Z,98769.20
2019-05-22T05:19:08.960Z,98776.13
2019-05-22T05:21:39.128Z,98775.22
2019-05-22T05:24:08.704Z,98773.37
2019-05-22T05:26:39.098Z,98771.55
2019-05-22T05:29:11.269Z,98773.25
2019-05-22T05:31:41.212Z,98769.66
2019-05-22T05:34:38.336Z,98777.45
2019-05-22T05:37:09.748Z,98777.83
2019-05-22T05:39:43.982Z,98778.18
2019-05-22T05:42:13.580Z,98771.45
2019-05-22T05:44:42.975Z,98770.92
2019-05-22T05:47:12.572Z,98778.31
2019-05-22T05:49:42.742Z,98778.28
2019-05-22T05:52:13.217Z,98779.20
2019-05-22T05:54:43.536Z,98780.69
2019-05-22T05:57:36.363Z,98791.91
2019-05-22T06:00:12.306Z,98787.39
2019-05-22T06:02:55.682Z,98790.42
2019-05-22T06:05:14.380Z,98785.01
2019-05-22T06:07:44.302Z,98794.84
2019-05-22T06:10:25.750Z,98795.52
2019-05-22T06:12:55.547Z,98799.73
2019-05-22T06:15:46.580Z,98793.55
2019-05-22T06:18:29.758Z,98795.38
2019-05-22T06:21:03.985Z,98799.59
2019-05-22T06:23:33.907Z,98797.63
2019-05-22T06:26:04.857Z,98797.21
2019-05-22T06:28:38.000Z,98801.48
2019-05-22T06:31:10.635Z,98806.61
2019-05-22T06:33:41.167Z,98812.16
2019-05-22T06:36:13.220Z,98811.70
2019-05-22T06:38:48.658Z,98811.09
2019-05-22T06:41:20.080Z,98812.16
2019-05-22T06:44:21.731Z,98818.36
2019-05-22T06:46:51.136Z,98816.56
2019-05-22T06:49:35.754Z,98819.41
2019-05-22T06:52:07.447Z,98821.55
2019-05-22T06:54:38.274Z,98819.95
2019-05-22T06:57:13.444Z,98823.23
2019-05-22T06:59:43.465Z,98830.08
2019-05-22T07:02:14.996Z,98827.23
2019-05-22T07:04:44.940Z,98827.70
2019-05-22T07:07:15.570Z,98830.80
2019-05-22T07:09:45.635Z,98835.59
2019-05-22T07:12:17.439Z,98836.09
2019-05-22T07:15:06.373Z,98839.35
2019-05-22T07:17:37.475Z,98835.53
2019-05-22T07:20:08.017Z,98834.04
2019-05-22T07:22:37.415Z,98832.03
2019-05-22T07:25:09.441Z,98828.66
2019-05-22T07:27:39.839Z,98829.56
2019-05-22T07:30:11.215Z,98823.33
2019-05-22T07:32:41.068Z,98829.79
2019-05-22T07:35:10.561Z,98833.06
2019-05-22T07:37:45.221Z,98833.03
2019-05-22T07:40:15.359Z,98835.59
2019-05-22T07:42:45.207Z,98835.98
2019-05-22T07:45:15.735Z,98842.22
2019-05-22T07:47:46.563Z,98843.41
2019-05-22T07:50:17.312Z,98841.55
2019-05-22T07:52:47.983Z,98844.27
2019-05-22T07:55:19.826Z,98845.07
2019-05-22T07:57:51.764Z,98852.46
2019-05-22T08:00:21.843Z,98849.45
2019-05-22T08:02:51.542Z,98848.78
2019-05-22T08:05:23.313Z,98841.33
2019-05-22T08:07:53.687Z,98845.50
2019-05-22T08:10:23.736Z,98846.05
2019-05-22T08:12:53.377Z,98844.45
2019-05-22T08:15:23.689Z,98841.23
2019-05-22T08:17:53.098Z,98846.98
2019-05-22T08:20:22.850Z,98847.75
2019-05-22T08:22:55.376Z,98850.29
2019-05-22T08:25:25.026Z,98846.95
2019-05-22T08:27:55.887Z,98847.66
2019-05-22T08:30:25.936Z,98852.38
2019-05-22T08:32:58.317Z,98852.75
2019-05-22T08:35:28.533Z,98850.84
2019-05-22T08:37:58.294Z,98853.78
2019-05-22T08:40:30.681Z,98845.62
2019-05-22T08:43:00.617Z,98854.39
2019-05-22T08:45:30.455Z,98851.13
2019-05-22T08:48:00.032Z,98847.26
2019-05-22T08:50:31.052Z,98838.39
2019-05-22T08:53:01.035Z,98837.63
2019-05-22T08:55:34.341Z,98838.66
2019-05-22T08:58:04.625Z,98838.95
2019-05-22T09:00:34.792Z,98844.15
2019-05-22T09:03:04.828Z,98840.40
2019-05-22T09:05:34.729Z,98845.20
2019-05-22T09:08:04.237Z,98844.57
2019-05-22T09:10:33.884Z,98843.92
2019-05-22T09:13:03.642Z,98837.36
2019-05-22T09:15:34.857Z,98841.87
2019-05-22T09:18:05.028Z,98833.45
2019-05-22T09:20:48.715Z,98836.72
2019-05-22T09:23:06.095Z,98834.20
2019-05-22T09:25:35.819Z,98828.61
2019-05-22T09:28:07.204Z,98833.95
2019-05-22T09:30:37.057Z,98843.75
2019-05-22T09:33:08.419Z,98848.58
2019-05-22T09:35:38.109Z,98854.17
2019-05-22T09:38:07.949Z,98850.43
2019-05-22T09:40:37.536Z,98849.20
2019-05-22T09:43:07.029Z,98851.33
2019-05-22T09:45:36.998Z,98846.55
2019-05-22T09:48:08.054Z,98850.19
2019-05-22T09:50:37.678Z,98848.14
2019-05-22T09:53:07.927Z,98850.30
2019-05-22T09:55:38.231Z,98841.36
2019-05-22T09:58:08.295Z,98846.08
2019-05-22T10:00:38.427Z,98839.91
2019-05-22T10:03:08.697Z,98837.34
2019-05-22T10:05:38.491Z,98828.97
2019-05-22T10:08:08.270Z,98835.25
2019-05-22T10:10:37.943Z,98838.49
2019-05-22T10:13:07.489Z,98837.81
2019-05-22T10:15:37.523Z,98831.93
2019-05-22T10:18:07.062Z,98822.16
2019-05-22T10:20:36.872Z,98820.90
2019-05-22T10:23:15.660Z,98813.03
2019-05-22T10:25:38.833Z,98815.66
2019-05-22T10:28:08.938Z,98802.70
2019-05-22T10:30:38.517Z,98806.11
2019-05-22T10:33:08.411Z,98807.59
2019-05-22T10:35:39.462Z,98809.49
2019-05-22T10:38:09.362Z,98809.81
2019-05-22T10:40:39.152Z,98805.52
2019-05-22T10:43:08.795Z,98807.60
2019-05-22T10:45:38.765Z,98803.85
2019-05-22T10:48:08.225Z,98806.38
2019-05-22T10:50:37.876Z,98806.94
2019-05-22T10:53:07.943Z,98811.27
2019-05-22T10:55:37.595Z,98804.17
2019-05-22T10:58:08.138Z,98807.65
2019-05-22T11:00:38.049Z,98795.93
2019-05-22T11:03:07.614Z,98792.49
2019-05-22T11:05:37.239Z,98787.30
2019-05-22T11:08:07.476Z,98784.38
2019-05-22T11:10:37.052Z,98783.22
2019-05-22T11:13:10.117Z,98787.03
2019-05-22T11:15:39.648Z,98780.02
2019-05-22T11:18:10.449Z,98782.82
2019-05-22T11:20:40.606Z,98782.84
2019-05-22T11:23:10.065Z,98786.00
2019-05-22T11:25:39.651Z,98786.23
2019-05-22T11:28:09.097Z,98781.02
2019-05-22T11:30:39.243Z,98777.95
2019-05-22T11:33:09.349Z,98782.00
2019-05-22T11:35:39.021Z,98775.28
2019-05-22T11:38:09.197Z,98768.86
2019-05-22T11:40:40.613Z,98762.83
2019-05-22T11:43:11.219Z,98774.70
2019-05-22T11:45:44.772Z,98770.02
2019-05-22T11:48:12.014Z,98768.58
2019-05-22T11:50:43.233Z,98774.48
2019-05-22T11:53:13.693Z,98765.58
2019-05-22T11:55:46.153Z,98771.12
2019-05-22T11:58:14.821Z,98759.79
2019-05-22T12:00:44.312Z,98765.08
2019-05-22T12:03:14.161Z,98767.75
2019-05-22T12:05:44.831Z,98757.72
2019-05-22T12:08:15.163Z,98762.58
2019-05-22T12:10:45.139Z,98755.64
2019-05-22T12:13:15.186Z,98756.17
2019-05-22T12:15:45.129Z,98764.38
2019-05-22T12:18:15.079Z,98758.87
2019-05-22T12:20:44.741Z,98755.61
2019-05-22T12:23:14.249Z,98758.87
2019-05-22T12:25:43.867Z,98753.88
2019-05-22T12:28:13.525Z,98757.52
2019-05-22T12:30:43.950Z,98756.97
2019-05-22T12:33:14.482Z,98756.91
2019-05-22T12:35:44.892Z,98752.45
2019-05-22T12:38:14.936Z,98764.59
2019-05-22T12:40:45.053Z,98761.44
2019-05-22T12:43:15.998Z,98758.80
2019-05-22T12:45:45.914Z,98762.25
2019-05-22T12:48:15.951Z,98755.69
2019-05-22T12:50:45.572Z,98767.10
2019-05-22T12:53:15.163Z,98762.27
2019-05-22T12:55:44.840Z,98758.41
2019-05-22T12:58:14.595Z,98757.63
2019-05-22T13:00:44.569Z,98761.47
2019-05-22T13:03:15.167Z,98760.59
2019-05-22T13:05:45.305Z,98746.88
2019-05-22T13:08:15.220Z,98757.09
2019-05-22T13:10:46.009Z,98761.41
2019-05-22T13:13:15.939Z,98760.64
2019-05-22T13:15:46.005Z,98751.34
2019-05-22T13:18:18.460Z,98759.80
2019-05-22T13:20:50.820Z,98761.66
2019-05-22T13:23:23.178Z,98760.66
2019-05-22T13:25:53.321Z,98760.55
2019-05-22T13:28:23.841Z,98759.08
2019-05-22T13:30:55.341Z,98763.11
2019-05-22T13:33:27.681Z,98764.86
2019-05-22T13:35:57.689Z,98758.87
2019-05-22T13:38:28.334Z,98761.95
2019-05-22T13:40:58.239Z,98756.50
2019-05-22T13:43:28.681Z,98760.09
2019-05-22T13:45:58.071Z,98763.09
2019-05-22T13:48:28.383Z,98763.48
2019-05-22T13:50:59.204Z,98763.54
2019-05-22T13:53:29.923Z,98765.92
2019-05-22T13:55:59.472Z,98766.71
2019-05-22T13:58:30.708Z,98767.88
2019-05-22T14:01:00.100Z,98758.52
2019-05-22T14:03:30.411Z,98761.36
2019-05-22T14:06:00.361Z,98760.55
2019-05-22T14:08:29.999Z,98758.20
2019-05-22T14:10:59.580Z,98753.02
2019-05-22T14:13:29.735Z,98751.00
2019-05-22T14:15:59.316Z,98752.77
2019-05-22T14:18:28.907Z,98758.54
2019-05-22T14:20:58.887Z,98755.12
2019-05-22T14:23:29.032Z,98756.97
2019-05-22T14:25:58.688Z,98751.24
2019-05-22T14:28:28.699Z,98756.44
2019-05-22T14:30:58.566Z,98753.59
2019-05-22T14:33:29.253Z,98754.88
2019-05-22T14:36:02.756Z,98755.72
2019-05-22T14:38:32.958Z,98760.28
2019-05-22T14:41:03.589Z,98758.22
2019-05-22T14:43:33.064Z,98762.33
2019-05-22T14:46:03.131Z,98759.88
2019-05-22T14:48:33.558Z,98769.32
2019-05-22T14:51:02.982Z,98764.05
2019-05-22T14:53:33.517Z,98764.98
2019-05-22T14:56:03.663Z,98762.16
2019-05-22T14:58:33.978Z,98760.18
2019-05-22T15:01:04.397Z,98751.06
2019-05-22T15:03:34.433Z,98749.98
2019-05-22T15:06:04.558Z,98745.80
2019-05-22T15:08:34.222Z,98752.30
2019-05-22T15:11:03.917Z,98742.33
2019-05-22T15:13:34.233Z,98749.69
2019-05-22T15:16:03.896Z,98755.75
2019-05-22T15:18:33.467Z,98750.77
2019-05-22T15:21:05.048Z,98745.78
2019-05-22T15:23:36.925Z,98750.22
2019-05-22T15:26:06.516Z,98742.73
2019-05-22T15:28:36.361Z,98744.05
2019-05-22T15:31:06.195Z,98747.94
2019-05-22T15:33:36.080Z,98741.47
2019-05-22T15:36:08.122Z,98739.21
2019-05-22T15:38:40.927Z,98739.39
2019-05-22T15:41:11.253Z,98735.25
2019-05-22T15:43:43.470Z,98732.92
2019-05-22T15:46:15.517Z,98735.47
2019-05-22T15:48:47.332Z,98734.09
2019-05-22T15:51:20.901Z,98732.16
2019-05-22T15:53:51.998Z,98726.30
2019-05-22T15:56:21.940Z,98730.59
2019-05-22T15:58:54.780Z,98721.76
2019-05-22T16:01:25.582Z,98724.23
2019-05-22T16:03:56.718Z,98732.45
2019-05-22T16:06:29.997Z,98731.70
2019-05-22T16:09:01.796Z,98730.42
2019-05-22T16:11:31.458Z,98732.03
2019-05-22T16:14:01.787Z,98739.39
2019-05-22T16:16:33.013Z,98739.16
2019-05-22T16:19:05.530Z,98730.85
2019-05-22T16:21:38.443Z,98738.55
2019-05-22T16:24:10.660Z,98732.73
2019-05-22T16:26:41.194Z,98732.58
2019-05-22T16:29:11.611Z,98730.25
2019-05-22T16:31:43.651Z,98731.08
2019-05-22T16:34:14.270Z,98727.69
2019-05-22T16:36:47.849Z,98733.38
2019-05-22T16:39:17.613Z,98727.63
2019-05-22T16:41:47.543Z,98725.47
2019-05-22T16:44:17.533Z,98727.83
2019-05-22T16:46:48.733Z,98728.08
2019-05-22T16:49:18.179Z,98725.06
2019-05-22T16:51:48.703Z,98721.43
2019-05-22T16:54:21.155Z,98723.62
2019-05-22T16:56:51.539Z,98730.00
2019-05-22T16:59:21.474Z,98732.47
2019-05-22T17:01:59.669Z,98731.91
2019-05-22T17:04:22.597Z,98732.62
2019-05-22T17:06:52.256Z,98731.80
2019-05-22T17:09:21.816Z,98729.32
2019-05-22T17:11:52.464Z,98726.55
2019-05-22T17:14:23.588Z,98727.38
2019-05-22T17:16:53.083Z,98738.91
2019-05-22T17:19:27.419Z,98730.96
2019-05-22T17:21:55.158Z,98727.33
2019-05-22T17:24:25.094Z,98735.45
2019-05-22T17:26:56.056Z,98725.48
2019-05-22T17:29:26.397Z,98727.82
2019-05-22T17:31:56.553Z,98731.84
2019-05-22T17:34:33.762Z,98733.17
2019-05-22T17:37:11.067Z,98734.02
2019-05-22T17:39:45.871Z,98736.91
2019-05-22T17:42:17.572Z,98741.55
2019-05-22T17:44:49.494Z,98735.91
2019-05-22T17:47:21.829Z,98731.80
2019-05-22T17:49:52.222Z,98731.29
2019-05-22T17:52:23.332Z,98728.52
2019-05-22T17:54:53.580Z,98732.87
2019-05-22T17:57:24.113Z,98727.98
2019-05-22T17:59:54.544Z,98726.83
2019-05-22T18:02:25.662Z,98733.34
2019-05-22T18:04:55.343Z,98733.63
2019-05-22T18:07:25.735Z,98740.23
2019-05-22T18:09:55.490Z,98736.88
2019-05-22T18:12:25.667Z,98739.83
2019-05-22T18:14:55.320Z,98746.23
2019-05-22T18:17:26.449Z,98749.17
2019-05-22T18:19:56.098Z,98746.45
2019-05-22T18:22:25.529Z,98747.00
2019-05-22T18:24:55.101Z,98747.39
2019-05-22T18:27:25.495Z,98746.16
2019-05-22T18:29:55.148Z,98754.51
2019-05-22T18:32:24.770Z,98749.55
2019-05-22T18:34:54.303Z,98748.27
2019-05-22T18:37:23.989Z,98750.48
2019-05-22T18:39:53.622Z,98761.64
2019-05-22T18:42:23.276Z,98758.22
2019-05-22T18:44:52.739Z,98757.52
2019-05-22T18:47:25.142Z,98762.05
2019-05-22T18:49:53.922Z,98760.61
2019-05-22T18:52:38.209Z,98760.23
2019-05-22T18:54:54.561Z,98756.64
2019-05-22T18:57:24.037Z,98764.81
2019-05-22T19:00:00.536Z,98760.94
2019-05-22T19:02:25.101Z,98763.28
2019-05-22T19:04:54.536Z,98765.26
2019-05-22T19:07:24.373Z,98764.00
2019-05-22T19:09:53.802Z,98771.81
2019-05-22T19:12:23.933Z,98770.69
2019-05-22T19:14:53.722Z,98769.61
2019-05-22T19:17:23.570Z,98776.33
2019-05-22T19:19:53.009Z,98773.35
2019-05-22T19:22:22.582Z,98774.96
2019-05-22T19:24:52.438Z,98785.03
2019-05-22T19:27:21.923Z,98786.45
2019-05-22T19:29:51.354Z,98784.03
2019-05-22T19:32:21.002Z,98789.71
2019-05-22T19:34:50.483Z,98798.86
2019-05-22T19:37:20.486Z,98798.75
2019-05-22T19:39:49.910Z,98801.72
2019-05-22T19:42:19.481Z,98800.03
2019-05-22T19:44:48.948Z,98797.59
2019-05-22T19:47:19.687Z,98796.80
2019-05-22T19:49:49.164Z,98798.68
2019-05-22T19:52:22.474Z,98801.84
2019-05-22T19:54:51.226Z,98803.50
2019-05-22T19:57:20.886Z,98801.81
2019-05-22T19:59:50.351Z,98801.95
2019-05-22T20:02:20.716Z,98811.31
2019-05-22T20:04:51.188Z,98814.65
2019-05-22T20:07:21.159Z,98809.25
2019-05-22T20:09:51.406Z,98811.12
2019-05-22T20:12:24.740Z,98809.11
2019-05-22T20:14:52.422Z,98809.56
2019-05-22T20:17:23.232Z,98814.56
2019-05-22T20:19:53.426Z,98811.58
2019-05-22T20:22:24.333Z,98812.97
2019-05-22T20:24:53.802Z,98810.41
2019-05-22T20:27:24.042Z,98816.17
2019-05-22T20:29:53.608Z,98815.43
2019-05-22T20:32:23.999Z,98814.64
2019-05-22T20:34:53.416Z,98816.09
2019-05-22T20:37:22.812Z,98824.98
2019-05-22T20:39:52.394Z,98827.01
2019-05-22T20:42:22.643Z,98833.63
2019-05-22T20:44:52.394Z,98831.77
2019-05-22T20:47:25.208Z,98836.99
2019-05-22T20:49:54.890Z,98833.77
2019-05-22T20:52:24.829Z,98838.45
2019-05-22T20:54:55.883Z,98837.22
2019-05-22T20:57:26.293Z,98835.45
2019-05-22T20:59:56.756Z,98837.83
2019-05-22T21:02:27.084Z,98834.81
2019-05-22T21:04:57.533Z,98837.51
2019-05-22T21:07:33.223Z,98836.56
2019-05-22T21:10:03.615Z,98839.34
2019-05-22T21:12:36.109Z,98836.39
2019-05-22T21:15:06.641Z,98838.78
2019-05-22T21:17:37.585Z,98835.78
2019-05-22T21:20:09.865Z,98838.06
2019-05-22T21:22:40.043Z,98837.70
2019-05-22T21:25:11.976Z,98843.11
2019-05-22T21:27:42.579Z,98839.22
2019-05-22T21:30:14.007Z,98837.08
2019-05-22T21:32:44.010Z,98837.52
2019-05-22T21:35:18.587Z,98836.63
2019-05-22T21:37:48.054Z,98837.50
2019-05-22T21:40:21.085Z,98839.73
2019-05-22T21:42:52.241Z,98841.05
2019-05-22T21:45:22.811Z,98841.98
2019-05-22T21:47:52.641Z,98852.34
2019-05-22T21:50:22.591Z,98844.13
2019-05-22T21:52:53.402Z,98856.30
2019-05-22T21:55:24.167Z,98863.08
2019-05-22T21:57:55.176Z,98856.09
2019-05-22T22:00:34.866Z,98851.80
2019-05-22T22:03:05.879Z,98849.22
2019-05-22T22:05:35.841Z,98850.08
2019-05-22T22:08:05.584Z,98850.41
2019-05-22T22:10:35.464Z,98849.48
2019-05-22T22:13:07.888Z,98848.16
2019-05-22T22:15:41.910Z,98842.93
2019-05-22T22:18:13.160Z,98843.86
2019-05-22T22:20:43.582Z,98842.59
2019-05-22T22:23:15.320Z,98845.30
2019-05-22T22:25:46.765Z,98852.95
2019-05-22T22:28:18.176Z,98853.50
2019-05-22T22:30:55.204Z,98850.00
2019-05-22T22:33:32.234Z,98856.17
2019-05-22T22:36:03.368Z,98852.70
2019-05-22T22:38:35.272Z,98862.44
2019-05-22T22:41:07.174Z,98856.77
2019-05-22T22:43:39.499Z,98866.52
2019-05-22T22:46:19.242Z,98864.80
2019-05-22T22:48:51.698Z,98860.44
2019-05-22T22:51:22.569Z,98863.91
2019-05-22T22:53:53.616Z,98859.50
2019-05-22T22:56:23.859Z,98863.33
2019-05-22T22:58:53.805Z,98861.89
2019-05-22T23:01:27.912Z,98865.37
2019-05-22T23:04:01.010Z,98859.63
2019-05-22T23:06:31.639Z,98861.43
2019-05-22T23:09:01.942Z,98865.37
2019-05-22T23:11:32.603Z,98865.86
2019-05-22T23:14:02.969Z,98865.96
2019-05-22T23:16:32.361Z,98861.27
2019-05-22T23:19:14.451Z,98861.37
2019-05-22T23:21:44.356Z,98860.98
2019-05-22T23:24:14.266Z,98859.75
2019-05-22T23:26:44.731Z,98853.16
2019-05-22T23:29:14.192Z,98858.05
2019-05-22T23:31:44.275Z,98854.56
2019-05-22T23:34:13.944Z,98862.53
2019-05-22T23:36:45.284Z,98857.73
2019-05-22T23:39:15.414Z,98859.06
2019-05-22T23:41:46.514Z,98864.77
2019-05-22T23:44:19.490Z,98858.27
2019-05-22T23:46:49.803Z,98863.06
2019-05-22T23:49:19.189Z,98857.78
2019-05-22T23:51:48.800Z,98863.50
2019-05-22T23:54:18.532Z,98864.03
2019-05-22T23:56:49.731Z,98857.99
2019-05-22T23:59:19.530Z,98855.48
